Friedman Memorial Airport
KSUN : rendu visible

Aérodrome :











RETROUVEZ-NOUS SUR...

 
LOGIN :

S'inscrire | Disclaimer

   EN    FR    IT 

 









Légende :    VFR   VFR Marginal   IFR   IFR Intensif   IFR Très Intensif
Visi : 
Plafond : 
>= 8 km
>= 3000ft
5 à 8 km
1000 à 3000 ft
1500m à 5 km
500 à 1000 ft
800 à 1500m
200 à 500 ft
< 800m
< 200 ft
Symboles :   Orages  Brouillard  Fortes neiges  Fortes précipitations  Vent > 20 kt






- Altitude de l'aérodrome : 5318 ft


KSUN - Friedman Memorial

DERNIER METAR :
  • 241450Z 00000KT 10SM SKC M08/M13 A3024

METARs EXPIRÉS :
  • 241350Z 00000KT 10SM SKC M07/M12 A3022
  • 241235Z AUTO 00000KT 10SM CLR M06/M12 A3020 RMK AO2

TAF KSUN
Valide du 24 à 12h jusqu'au 25 à 18h UTC


241120Z 2412/2518 31008KT P6SM FEW050
FM241800 25010KT P6SM FEW030
FM250200 31008KT P6SM SKC AMD LTD TO CLD VIS AND WIND TIL 241400



MET'MAP, la Météo Aéronautique d'un coup d'oeil ! - Copyright ORBIFLY Décembre 2007 - Disclaimer

ORBIFLY MET'MAP TEAM :

Programmation & Développement : Alexandra Zaïnal
Sur une idée originale de : Baudouin d'Aumeries
Assistance à la programmation : Marc-Olivier Méhu
Soutien technique & logistique : Manuel Goepfert

Contact : metmap@orbifly.com




SOURCES & CREDITS :

   NOAA       Earth
Advisory